Portada
METAR-TAF:

METAR-TAF

Aeropuertos :

Dubái, Emiratos Árabes Unidos

Aeropuerto Internacional de Dubái

latitud: 25-15-10N, longitud: 055-21-52E, altitud: 8 m

Observación

El informe se hizo hace 1 hora y 4 minutos, a las 06:00 UTC
Viento 6 kt del sur, variando entre sur-sureste y suroeste
Temperatura 39°C
Humedad 31%
Presión 1000 hPa
Visibilidad: 8000 m

METAR: OMDB 240600Z 19006KT 160V230 8000 NSC 39/19 Q1000 NOSIG

Hora: 11:04 (07:04 UTC)

Pronóstico

El informe se hizo hace 14 horas y 12 minutos, a las 16:52 UTC
Pronóstico válido del 23 a las 18 UTC al 25 a las 00 UTC
Viento 5 kt del sur
Visibilidad: 8000 m
Evolucionando progresivamente
del 24 a las 07 UTC al 24 a las 09 UTC
Viento 12 kt del oeste-noroeste
Evolucionando progresivamente
del 24 a las 16 UTC al 24 a las 18 UTC
Viento 5 kt del sur

TAF: OMDB 231652Z 2318/2500 19005KT 8000 NSC BECMG 2407/2409 29012KT BECMG 2416/2418 17005KT

Observaciones y pronósticos meteorológicos de más de 4000 aeropuertos (mensajes METAR y TAF).

Los puntos amarillos y rojos representan las estaciones disponibles.

Ponga el ratón en el punto deseado para ver el nombre de la estación.

Haga clic para ver las observaciones y los pronósticos meteorológicos.

Para cambiar el mapa : haga clic en los botones verdes con una cruz de color negro para hacer un zoom, en el botón verde con un guión para alejar o en las flechas verdes para mapas adyacentes.


METAR-TAF: